Latest Weather Observations for Bombala AWS

IDN60801

Issued at 11:32 am EST Friday 26 May 2017 (issued every 30 minutes, with the page automatically refreshed every 10 minutes)

About weather observations | Map of weather stations | Latest weather observations for NSW | Other Formats
Station Details ID: 070328 Name: BOMBALA AWS Lat: -37.00 Lon: 149.23 Height: 760.5 m
Data from the previous 72 hours. | See also: Recent months at Bombala AWS
Date/Time
EST
Temp
°C
App
Temp
°C
Dew
Point
°C
Rel
Hum
%
Delta-T
°C
Wind Press
QNH
hPa
Press
MSL
hPa
Rain since
9am
mm
Dir  Spd
km/h
Gust
km/h
Spd
kts
Gust
kts
26/11:30am 12.1 9.6 6.6 69 2.7 W 9 15 5 8 1021.6 1021.8 0.0
26/11:00am 11.9 8.7 7.0 72 2.4 WSW 13 20 7 11 1021.7 1021.9 0.0
26/10:30am 11.2 9.0 6.1 71 2.5 NW 7 11 4 6 1022.0 1022.3 0.0
26/10:00am 10.1 7.9 6.4 78 1.8 NNW 7 11 4 6 1022.0 1022.3 0.0
26/09:30am 8.6 6.0 5.9 83 1.3 NW 9 13 5 7 1022.0 1022.3 0.0
26/09:00am 7.4 4.2 5.2 86 1.0 NNW 11 13 6 7 1021.8 1022.1 0.0
26/08:30am 5.9 3.0 4.5 91 0.6 NW 9 13 5 7 1021.7 1021.9 0.0
26/08:00am 4.0 0.8 3.1 94 0.4 NNW 9 11 5 6 1021.6 1021.8 0.0
26/07:30am 3.1 0.2 2.4 95 0.3 N 7 9 4 5 1021.4 1021.6 0.0
26/07:00am 3.1 0.2 2.4 95 0.3 N 7 9 4 5 1021.2 1021.4 0.0
26/06:30am 3.1 -0.2 2.7 97 0.2 NNW 9 13 5 7 1020.8 1021.1 0.0
26/06:00am 3.6 -0.7 3.3 98 0.1 NW 15 19 8 10 1020.4 1020.6 0.0
26/05:30am 2.8 -0.9 2.2 96 0.2 NW 11 13 6 7 1020.3 1020.5 0.0
26/05:00am 3.2 0.0 2.8 97 0.2 NNW 9 9 5 5 1020.1 1020.3 0.0
26/04:30am 3.2 -0.8 2.8 97 0.2 NW 13 17 7 9 1020.0 1020.2 0.0
26/04:00am 2.6 -0.4 2.2 97 0.2 NNW 7 9 4 5 1020.0 1020.2 0.0
26/03:30am 3.7 1.0 2.8 94 0.4 NNW 6 7 3 4 1020.2 1020.4 0.0
26/03:00am 4.2 2.0 3.3 94 0.4 NNW 4 6 2 3 1020.1 1020.3 0.0
26/02:30am 4.7 2.6 4.1 96 0.3 W 4 6 2 3 1020.1 1020.3 0.0
26/02:00am 4.2 2.1 3.9 98 0.1 W 4 6 2 3 1020.1 1020.3 0.0
26/01:30am 4.5 3.2 3.9 96 0.3 CALM 0 0 0 0 1020.1 1020.3 0.0
26/01:00am 4.8 2.7 3.9 94 0.4 N 4 4 2 2 1020.0 1020.2 0.0
26/12:30am 4.7 2.6 4.0 95 0.3 N 4 6 2 3 1020.2 1020.4 0.0
26/12:00am 5.2 3.5 4.0 92 0.5 W 2 4 1 2 1020.3 1020.5 0.0
 
Date/Time
EST
Temp
°C
App
Temp
°C
Dew
Point
°C
Rel
Hum
%
Delta-T
°C
Wind Press
QNH
hPa
Press
MSL
hPa
Rain since
9am
mm
Dir  Spd
km/h
Gust
km/h
Spd
kts
Gust
kts
25/11:30pm 5.1 3.0 3.8 91 0.6 WNW 4 7 2 4 1020.1 1020.3 0.0
25/11:00pm 5.5 2.9 4.3 92 0.5 NW 7 11 4 6 1020.2 1020.4 0.0
25/10:30pm 3.0 0.6 2.1 94 0.4 WSW 4 7 2 4 1020.1 1020.3 0.0
25/10:00pm 3.4 1.1 2.7 95 0.3 W 4 7 2 4 1020.0 1020.2 0.0
25/09:30pm 5.7 4.0 5.7 100 0.0 SW 4 6 2 3 1020.2 1020.4 0.0
25/09:00pm 5.2 4.1 4.9 98 0.1 CALM 0 0 0 0 1019.9 1020.1 0.0
25/08:30pm 5.5 4.3 4.8 95 0.3 CALM 0 0 0 0 1019.9 1020.1 0.0
25/08:00pm 7.1 6.2 5.9 92 0.6 CALM 0 0 0 0 1019.6 1019.8 0.0
25/07:30pm 7.9 7.0 6.0 88 0.9 CALM 0 0 0 0 1019.4 1019.6 0.0
25/07:00pm 8.7 8.1 7.2 90 0.7 CALM 0 0 0 0 1019.3 1019.5 0.0
25/06:30pm 8.5 7.8 6.8 89 0.8 CALM 0 0 0 0 1019.1 1019.3 0.0
25/06:00pm 9.1 7.1 6.9 86 1.1 SE 7 9 4 5 1018.9 1019.1 0.0
25/05:30pm 8.7 5.7 5.8 82 1.4 SSE 11 15 6 8 1018.7 1018.9 0.0
25/05:00pm 11.6 10.6 5.5 66 2.9 CALM 0 7 0 4 1018.4 1018.6 0.0
25/04:30pm 13.5 11.8 5.7 59 3.8 N 4 6 2 3 1018.2 1018.3 0.0
25/04:00pm 13.6 11.9 6.0 60 3.8 N 4 6 2 3 1018.2 1018.3 0.0
25/03:30pm 14.1 11.9 6.0 58 4.0 N 7 7 4 4 1018.2 1018.3 0.0
25/03:00pm 14.7 12.5 6.0 56 4.3 NNW 7 11 4 6 1018.0 1018.2 0.0
25/02:30pm 14.3 11.3 5.9 57 4.2 NNW 11 15 6 8 1018.0 1018.2 0.0
25/02:00pm 14.0 10.6 6.1 59 3.9 NW 13 17 7 9 1018.3 1018.4 0.0
25/01:30pm 13.9 11.9 6.3 60 3.8 NW 6 11 3 6 1018.6 1018.8 0.0
25/01:00pm 13.3 10.7 5.9 61 3.6 NW 9 15 5 8 1018.8 1019.0 0.0
25/12:30pm 12.4 8.9 5.6 63 3.3 WNW 13 19 7 10 1019.2 1019.4 0.0
25/12:00pm 12.2 8.4 6.0 66 3.0 NW 15 24 8 13 1019.6 1019.8 0.0
25/11:30am 11.4 8.0 5.7 68 2.8 NW 13 19 7 10 1020.0 1020.2 0.0
25/11:00am 10.9 8.2 5.7 70 2.5 NNW 9 15 5 8 1020.4 1020.6 0.0
25/10:30am 9.7 6.5 5.3 74 2.1 NNW 11 17 6 9 1020.6 1020.9 0.0
25/10:00am 8.7 5.2 5.4 80 1.6 NNW 13 19 7 10 1020.7 1021.0 0.0
25/09:30am 7.6 4.4 5.2 85 1.1 NNW 11 15 6 8 1020.7 1021.0 0.0
25/09:00am 6.7 2.3 4.9 88 0.8 NW 17 20 9 11 1020.7 1021.0 0.0
25/08:30am 5.6 1.6 4.9 95 0.3 NNW 15 17 8 9 1020.6 1020.9 0.0
25/08:00am 3.8 0.7 3.7 99 0.0 N 9 11 5 6 1020.4 1020.6 0.0
25/07:30am 2.5 -1.2 2.4 99 0.0 N 11 13 6 7 1020.1 1020.3 0.0
25/07:00am 2.9 0.5 2.2 95 0.3 NW 4 7 2 4 1019.9 1020.1 0.0
25/06:30am 3.5 2.0 3.1 97 0.2 CALM 0 0 0 0 1019.4 1019.6 0.0
25/06:00am 3.6 1.7 2.7 94 0.4 NW 2 6 1 3 1019.1 1019.3 0.0
25/05:30am 5.0 0.7 3.0 87 0.9 WNW 15 17 8 9 1018.9 1019.1 0.0
25/05:00am 5.6 1.0 3.8 88 0.8 WNW 17 20 9 11 1018.7 1018.9 0.0
25/04:30am 5.8 1.2 3.6 86 1.0 WNW 17 20 9 11 1018.6 1018.8 0.0
25/04:00am 5.2 0.5 3.2 87 0.9 NW 17 20 9 11 1018.5 1018.7 0.0
25/03:30am 5.1 1.6 3.4 89 0.7 NNW 11 13 6 7 1018.6 1018.8 0.0
25/03:00am 5.5 1.6 3.5 87 0.9 NW 13 15 7 8 1018.7 1018.9 0.0
25/02:30am 5.5 2.0 3.7 88 0.8 NW 11 13 6 7 1018.8 1019.0 0.0
25/02:00am 5.5 1.6 3.3 86 1.0 WNW 13 15 7 8 1018.7 1018.9 0.0
25/01:30am 5.3 1.8 3.3 87 0.9 NW 11 13 6 7 1018.6 1018.8 0.0
25/01:00am 6.0 2.8 3.3 83 1.2 NNW 9 13 5 7 1018.8 1019.0 0.0
25/12:30am 5.8 3.2 3.3 84 1.1 WSW 6 7 3 4 1019.0 1019.2 0.0
25/12:00am 5.3 2.7 3.2 86 0.9 N 6 9 3 5 1019.2 1019.4 0.0
 
Date/Time
EST
Temp
°C
App
Temp
°C
Dew
Point
°C
Rel
Hum
%
Delta-T
°C
Wind Press
QNH
hPa
Press
MSL
hPa
Rain since
9am
mm
Dir  Spd
km/h
Gust
km/h
Spd
kts
Gust
kts
24/11:30pm 4.9 1.6 2.4 84 1.1 NW 9 13 5 7 1019.0 1019.2 0.0
24/11:00pm 6.3 2.5 3.8 84 1.1 W 13 20 7 11 1018.8 1019.0 0.0
24/10:30pm 6.6 2.3 3.2 79 1.5 WSW 15 24 8 13 1018.7 1018.9 0.0
24/10:00pm 6.8 2.5 3.4 79 1.5 WSW 15 22 8 12 1018.6 1018.8 0.0
24/09:30pm 7.7 3.1 3.9 77 1.7 WSW 17 24 9 13 1018.6 1018.8 0.0
24/09:00pm 8.5 4.1 4.9 78 1.7 SW 17 26 9 14 1018.4 1018.6 0.0
24/08:30pm 7.8 4.9 4.4 79 1.6 WSW 9 17 5 9 1018.2 1018.3 0.0
24/08:00pm 7.9 4.2 4.5 79 1.6 WSW 13 20 7 11 1017.6 1017.8 0.0
24/07:30pm 8.4 4.0 4.6 77 1.8 WSW 17 24 9 13 1017.3 1017.5 0.0
24/07:00pm 8.5 3.7 4.7 77 1.8 W 19 24 10 13 1016.9 1017.0 0.0
24/06:30pm 9.3 5.4 5.3 76 1.9 W 15 20 8 11 1016.6 1016.8 0.0
24/06:00pm 9.1 6.0 5.7 79 1.6 WSW 11 13 6 7 1016.2 1016.4 0.0
24/05:30pm 8.5 6.1 5.1 79 1.6 WSW 7 9 4 5 1015.8 1015.9 0.0
24/05:00pm 9.4 5.8 5.0 74 2.1 SW 13 19 7 10 1015.1 1015.3 0.0
24/04:30pm 10.5 5.8 5.1 69 2.6 SW 19 22 10 12 1014.6 1014.7 0.0
24/04:00pm 12.0 7.6 4.5 60 3.6 SW 17 24 9 13 1014.2 1014.3 0.0
24/03:30pm 13.1 6.0 3.7 53 4.4 W 30 39 16 21 1013.5 1013.6 0.0
24/03:00pm 13.1 6.0 3.5 52 4.5 WSW 30 43 16 23 1013.1 1013.2 0.0
24/02:30pm 13.1 6.8 4.0 54 4.3 W 26 33 14 18 1012.9 1013.0 0.0
24/02:00pm 13.6 6.0 3.9 52 4.6 W 33 43 18 23 1012.6 1012.6 0.0
24/01:30pm 13.6 6.2 5.0 56 4.2 W 33 46 18 25 1012.3 1012.4 0.0
24/01:00pm 12.6 4.7 4.6 58 3.8 W 35 44 19 24 1012.3 1012.4 0.0
24/12:30pm 13.4 6.1 5.6 59 3.8 W 33 44 18 24 1012.1 1012.2 0.0
24/12:05pm 12.4 5.5 4.6 59 3.7 W 30 50 16 27 1012.4 1012.5 0.0
24/12:00pm 13.2 6.3 6.3 63 3.4 W 32 46 17 25 1012.7 1012.7 0.0
24/11:30am 12.7 4.9 5.1 60 3.7 WSW 35 48 19 26 1013.0 1013.1 0.0
24/11:00am 11.9 5.7 6.0 67 2.9 W 28 35 15 19 1013.1 1013.2 0.0
24/10:30am 12.1 7.0 7.8 75 2.2 WNW 24 30 13 16 1013.3 1013.4 0.0
24/10:00am 11.6 7.6 8.1 79 1.8 WNW 19 24 10 13 1013.2 1013.3 0.0
24/09:30am 10.7 6.4 7.2 79 1.7 WNW 19 22 10 12 1013.2 1013.3 0.0
24/09:00am 9.5 7.1 8.6 94 0.5 NW 11 15 6 8 1013.4 1013.5 11.6
24/08:30am 7.6 3.8 7.6 100 0.0 NW 17 20 9 11 1013.3 1013.4 11.6
24/08:00am 7.3 4.2 7.3 100 0.0 NNW 13 17 7 9 1013.5 1013.6 11.6
24/07:30am 7.5 4.1 7.5 100 0.0 NNW 15 19 8 10 1013.6 1013.7 11.6
24/07:00am 7.3 4.2 7.3 100 0.0 NW 13 15 7 8 1013.6 1013.7 11.6
24/06:30am 7.2 5.2 7.2 100 0.0 NW 7 9 4 5 1013.8 1014.0 11.6
24/06:00am 7.2 4.8 7.2 100 0.0 NW 9 13 5 7 1013.3 1013.4 11.2
24/05:30am 7.2 6.2 7.2 100 0.0 SSE 2 6 1 3 1013.5 1013.6 11.0
24/05:00am 7.6 6.3 7.6 100 0.0 ENE 4 7 2 4 1013.5 1013.6 11.0
24/04:30am 8.3 6.6 8.3 100 0.0 W 7 11 4 6 1014.2 1014.3 10.6
24/04:00am 8.4 4.4 8.4 100 0.0 NW 19 24 10 13 1014.4 1014.5 9.4
24/03:30am 8.3 4.3 8.3 100 0.0 NNW 19 24 10 13 1014.2 1014.3 5.2
24/03:00am 7.5 3.9 6.9 96 0.3 NNW 15 20 8 11 1014.2 1014.3 1.4
24/02:30am 6.6 3.8 5.2 91 0.6 NNW 9 11 5 6 1014.2 1014.3 0.0
24/02:00am 6.7 3.1 4.9 88 0.8 N 13 15 7 8 1013.8 1014.0 0.0
24/01:30am 6.8 4.3 4.8 87 0.9 WNW 7 11 4 6 1014.3 1014.4 0.0
24/01:00am 6.6 4.1 4.6 87 0.9 NW 7 9 4 5 1014.8 1014.9 0.0
24/12:30am 5.5 2.2 4.3 92 0.5 NNW 11 11 6 6 1015.1 1015.3 0.0
24/12:00am 6.0 3.5 5.0 93 0.5 NW 7 9 4 5 1015.8 1015.9 0.0
 
Date/Time
EST
Temp
°C
App
Temp
°C
Dew
Point
°C
Rel
Hum
%
Delta-T
°C
Wind Press
QNH
hPa
Press
MSL
hPa
Rain since
9am
mm
Dir  Spd
km/h
Gust
km/h
Spd
kts
Gust
kts
23/11:30pm 5.3 1.6 4.4 94 0.4 NNW 13 13 7 7 1016.2 1016.4 0.0
23/11:00pm 6.2 3.5 5.5 95 0.3 NW 9 11 5 6 1016.3 1016.5 0.0
23/10:30pm 5.4 2.6 5.1 98 0.1 NW 9 11 5 6 1016.8 1016.9 0.0
23/10:00pm 6.0 3.8 5.1 94 0.4 N 6 6 3 3 1016.9 1017.0 0.0
23/09:30pm 5.4 3.0 4.4 93 0.4 WNW 6 11 3 6 1017.0 1017.1 0.0
23/09:00pm 5.7 3.2 5.0 95 0.3 NW 7 9 4 5 1016.9 1017.0 0.0
23/08:30pm 6.4 4.9 5.0 91 0.6 NNE 2 6 1 3 1016.6 1016.8 0.0
23/08:00pm 8.9 7.2 5.8 81 1.5 NNW 4 7 2 4 1016.8 1016.9 0.0
23/07:30pm 8.2 6.7 5.0 80 1.5 SE 2 7 1 4 1016.6 1016.8 0.0
23/07:00pm 9.9 9.0 6.1 77 1.8 CALM 0 0 0 0 1016.5 1016.7 0.0
23/06:30pm 11.3 10.4 6.2 71 2.5 CALM 0 0 0 0 1016.4 1016.6 0.0
23/06:00pm 11.8 11.0 6.5 70 2.6 CALM 0 4 0 2 1016.3 1016.5 0.0
23/05:30pm 12.8 11.4 7.3 69 2.8 ENE 4 6 2 3 1016.2 1016.4 0.0
23/05:00pm 13.4 11.2 6.3 62 3.5 E 7 9 4 5 1016.0 1016.1 0.0
23/04:30pm 15.3 13.6 5.8 53 4.7 SE 4 6 2 3 1016.2 1016.4 0.0
23/04:00pm 16.4 15.5 6.2 51 5.2 CALM 0 4 0 2 1016.3 1016.5 0.0
23/03:30pm 17.1 15.2 6.6 50 5.4 WSW 6 6 3 3 1016.5 1016.7 0.0
23/03:00pm 16.7 16.0 7.1 53 5.0 CALM 0 2 0 1 1016.6 1016.8 0.0
23/02:30pm 17.0 14.3 5.6 47 5.7 NW 9 11 5 6 1016.9 1017.0 0.0
23/02:00pm 17.1 15.6 4.8 44 6.1 NNW 2 6 1 3 1017.0 1017.1 0.0
23/01:30pm 16.4 14.5 6.5 52 5.1 NW 6 9 3 5 1017.3 1017.5 0.0
23/01:00pm 15.3 13.3 7.1 58 4.2 N 7 11 4 6 1017.5 1017.7 0.0
23/12:30pm 14.5 12.1 6.8 60 3.9 NNW 9 13 5 7 1018.3 1018.4 0.0
23/12:00pm 13.5 11.5 7.3 66 3.1 N 7 13 4 7 1018.5 1018.7 0.0

Other Formats:

Comma delimited format used in spreadsheet applications
http://www.bom.gov.au/fwo/IDN60801/IDN60801.94929.axf

JavaScript Object Notation format (JSON) in row-major order
http://www.bom.gov.au/fwo/IDN60801/IDN60801.94929.json